createdAt,value
2023-02-19T00:04:54.681Z,2.10
2023-02-19T00:10:59.249Z,2.27
2023-02-19T00:17:11.865Z,2.50
2023-02-19T00:23:16.456Z,2.53
2023-02-19T00:29:21.218Z,2.77
2023-02-19T00:35:25.769Z,2.50
2023-02-19T00:41:30.598Z,3.40
2023-02-19T00:47:38.833Z,3.87
2023-02-19T00:53:43.342Z,4.10
2023-02-19T00:59:47.898Z,4.43
2023-02-19T01:05:52.545Z,4.37
2023-02-19T01:11:57.131Z,4.07
2023-02-19T01:18:01.807Z,4.93
2023-02-19T01:24:06.391Z,3.63
2023-02-19T01:30:10.970Z,3.73
2023-02-19T01:36:15.571Z,3.40
2023-02-19T01:42:22.911Z,3.47
2023-02-19T01:48:27.489Z,3.50
2023-02-19T01:54:34.384Z,3.90
2023-02-19T02:00:39.033Z,3.70
2023-02-19T02:06:49.656Z,3.37
2023-02-19T02:12:55.389Z,3.23
2023-02-19T02:19:04.815Z,3.33
2023-02-19T02:25:09.349Z,3.67
2023-02-19T02:31:18.601Z,3.47
2023-02-19T02:37:26.839Z,3.50
2023-02-19T02:43:31.369Z,3.30
2023-02-19T02:50:05.080Z,3.33
2023-02-19T02:56:12.720Z,3.90
2023-02-19T03:02:28.197Z,3.60
2023-02-19T03:08:39.349Z,3.50
2023-02-19T03:15:02.449Z,3.43
2023-02-19T03:21:09.526Z,4.00
2023-02-19T03:27:15.126Z,4.90
2023-02-19T03:33:40.803Z,4.80
2023-02-19T03:39:50.769Z,4.17
2023-02-19T03:46:08.511Z,3.80
2023-02-19T03:52:33.328Z,2.80
2023-02-19T03:58:46.423Z,2.40
2023-02-19T04:05:31.940Z,2.13
2023-02-19T04:11:36.512Z,3.03
2023-02-19T04:17:44.317Z,2.33
2023-02-19T04:23:49.297Z,3.50
2023-02-19T04:29:53.858Z,3.80
2023-02-19T04:35:58.386Z,2.60
2023-02-19T04:42:02.933Z,2.30
2023-02-19T04:48:07.708Z,2.60
2023-02-19T04:54:12.306Z,3.03
2023-02-19T05:00:16.812Z,3.33
2023-02-19T05:06:21.368Z,3.10
2023-02-19T05:12:25.907Z,3.17
2023-02-19T05:18:30.450Z,3.00
2023-02-19T05:24:35.075Z,3.40
2023-02-19T05:30:39.595Z,2.87
2023-02-19T05:36:48.346Z,2.93
2023-02-19T05:42:52.865Z,3.37
2023-02-19T05:48:58.244Z,2.93
2023-02-19T05:55:03.023Z,3.07
2023-02-19T06:01:08.083Z,2.30
2023-02-19T06:07:17.217Z,1.97
2023-02-19T06:13:21.766Z,2.20
2023-02-19T06:19:26.313Z,1.63
2023-02-19T06:25:30.877Z,1.63
2023-02-19T06:31:35.523Z,2.07
2023-02-19T06:37:40.179Z,2.40
2023-02-19T06:43:44.940Z,5.37
2023-02-19T06:49:49.478Z,4.90
2023-02-19T06:55:54.069Z,2.37
2023-02-19T07:01:58.769Z,2.30
2023-02-19T07:08:03.275Z,3.00
2023-02-19T07:14:08.569Z,2.20
2023-02-19T07:20:13.211Z,2.30
2023-02-19T07:26:17.799Z,2.07
2023-02-19T07:32:26.226Z,2.50
2023-02-19T07:38:30.774Z,2.40
2023-02-19T07:44:37.987Z,2.70
2023-02-19T07:50:43.668Z,2.60
2023-02-19T07:56:48.310Z,2.83
2023-02-19T08:03:02.155Z,2.20
2023-02-19T08:09:09.614Z,1.93
2023-02-19T08:15:14.143Z,2.20
2023-02-19T08:21:18.790Z,2.40
2023-02-19T08:27:23.368Z,1.93
2023-02-19T08:33:27.974Z,2.40
2023-02-19T08:39:32.518Z,1.60
2023-02-19T08:45:37.047Z,1.97
2023-02-19T08:51:42.010Z,1.40
2023-02-19T08:57:46.701Z,1.40
2023-02-19T09:03:52.809Z,1.70
2023-02-19T09:09:57.553Z,2.10
2023-02-19T09:16:03.033Z,3.27
2023-02-19T09:22:08.964Z,1.57
2023-02-19T09:28:22.118Z,1.93
2023-02-19T09:34:26.679Z,1.50
2023-02-19T09:40:31.233Z,1.43
2023-02-19T09:46:37.875Z,2.00
2023-02-19T09:52:45.564Z,1.67
2023-02-19T09:58:50.284Z,1.33
2023-02-19T10:04:54.929Z,0.97
2023-02-19T10:11:31.415Z,1.30
2023-02-19T10:17:37.341Z,1.37
2023-02-19T10:23:41.968Z,1.27
2023-02-19T10:29:46.535Z,1.17
2023-02-19T10:35:51.174Z,2.07
2023-02-19T10:42:01.675Z,1.27
2023-02-19T10:48:07.385Z,1.20
2023-02-19T10:54:23.947Z,1.10
2023-02-19T11:00:32.557Z,1.13
2023-02-19T11:06:38.665Z,1.00
2023-02-19T11:12:43.311Z,0.87
2023-02-19T11:18:47.944Z,0.83
2023-02-19T11:24:56.706Z,0.83
2023-02-19T11:31:35.509Z,0.90
2023-02-19T11:37:40.931Z,1.10
2023-02-19T11:44:13.052Z,1.07
2023-02-19T11:50:39.380Z,1.10
2023-02-19T11:57:01.748Z,0.80
2023-02-19T12:03:25.177Z,0.90
2023-02-19T12:09:37.328Z,1.20
2023-02-19T12:16:01.900Z,1.20
2023-02-19T12:22:25.008Z,1.93
2023-02-19T12:28:54.285Z,1.03
2023-02-19T12:35:04.634Z,1.10
2023-02-19T12:41:40.543Z,1.10
2023-02-19T12:47:52.822Z,1.10
2023-02-19T12:54:03.248Z,1.00
2023-02-19T13:00:18.939Z,1.20
2023-02-19T13:06:50.032Z,1.50
2023-02-19T13:13:01.043Z,1.00
2023-02-19T13:19:07.087Z,1.00
2023-02-19T13:25:20.614Z,1.00
2023-02-19T13:31:54.597Z,1.50
2023-02-19T13:37:59.363Z,1.20
2023-02-19T13:44:08.055Z,1.70
2023-02-19T13:50:48.089Z,1.17
2023-02-19T13:56:54.441Z,0.97
2023-02-19T14:02:58.977Z,1.57
2023-02-19T14:09:03.541Z,1.53
2023-02-19T14:15:28.652Z,1.57
2023-02-19T14:21:43.909Z,1.40
2023-02-19T14:27:48.630Z,1.10
2023-02-19T14:33:53.803Z,1.50
2023-02-19T14:40:01.002Z,1.10
2023-02-19T14:46:09.487Z,1.33
2023-02-19T14:52:36.738Z,1.27
2023-02-19T14:58:43.236Z,0.80
2023-02-19T15:04:52.442Z,1.00
2023-02-19T15:11:00.494Z,1.20
2023-02-19T15:17:05.137Z,0.83
2023-02-19T15:23:09.796Z,1.10
2023-02-19T15:29:26.677Z,0.97
2023-02-19T15:35:33.981Z,0.90
2023-02-19T15:41:38.613Z,1.00
2023-02-19T15:47:44.643Z,1.13
2023-02-19T15:53:52.436Z,0.90
2023-02-19T16:00:02.894Z,0.93
2023-02-19T16:06:15.777Z,1.13
2023-02-19T16:12:27.313Z,1.37
2023-02-19T16:18:31.916Z,1.03
2023-02-19T16:24:36.624Z,2.53
2023-02-19T16:30:41.715Z,1.40
2023-02-19T16:36:48.451Z,1.20
2023-02-19T16:42:53.965Z,2.83
2023-02-19T16:48:58.514Z,2.63
2023-02-19T16:55:03.878Z,1.17
2023-02-19T17:01:09.042Z,1.77
2023-02-19T17:07:14.436Z,1.40
2023-02-19T17:13:20.286Z,4.03
2023-02-19T17:19:25.266Z,1.10
2023-02-19T17:25:29.833Z,1.93
2023-02-19T17:31:35.747Z,2.00
2023-02-19T17:37:40.491Z,2.70
2023-02-19T17:43:46.697Z,1.90
2023-02-19T17:49:51.631Z,1.57
2023-02-19T17:55:56.266Z,2.17
2023-02-19T18:02:01.945Z,1.73
2023-02-19T18:08:06.563Z,1.57
2023-02-19T18:14:11.135Z,1.70
2023-02-19T18:20:15.730Z,2.60
2023-02-19T18:26:21.533Z,1.83
2023-02-19T18:32:26.126Z,2.00
2023-02-19T18:38:31.663Z,1.80
2023-02-19T18:44:36.239Z,2.30
2023-02-19T18:50:41.005Z,2.40
2023-02-19T18:56:45.568Z,1.93
2023-02-19T19:02:51.429Z,1.53
2023-02-19T19:09:00.426Z,1.90
2023-02-19T19:15:05.470Z,2.40
2023-02-19T19:21:19.314Z,1.30
2023-02-19T19:27:23.954Z,2.20
2023-02-19T19:33:28.571Z,1.90
2023-02-19T19:39:33.141Z,1.30
2023-02-19T19:45:37.786Z,1.23
2023-02-19T19:51:42.398Z,1.50
2023-02-19T19:57:49.885Z,1.40
2023-02-19T20:03:54.450Z,1.90
2023-02-19T20:09:59.709Z,1.67
2023-02-19T20:16:04.429Z,1.73
2023-02-19T20:22:12.251Z,1.97
2023-02-19T20:28:16.818Z,2.07
2023-02-19T20:34:21.486Z,2.10
2023-02-19T20:40:30.281Z,2.20
2023-02-19T20:46:34.844Z,1.90
2023-02-19T20:53:08.681Z,1.77
2023-02-19T20:59:13.319Z,1.70
2023-02-19T21:05:19.876Z,1.30
2023-02-19T21:11:24.453Z,2.00
2023-02-19T21:17:29.717Z,1.57
2023-02-19T21:23:34.248Z,1.90
2023-02-19T21:29:38.883Z,1.73
2023-02-19T21:35:43.430Z,1.83
2023-02-19T21:41:48.011Z,2.33
2023-02-19T21:47:55.612Z,1.00
2023-02-19T21:54:00.218Z,1.13
2023-02-19T22:00:05.277Z,1.40
2023-02-19T22:06:10.411Z,1.40
2023-02-19T22:12:15.112Z,0.80
2023-02-19T22:18:19.650Z,1.90
2023-02-19T22:24:25.419Z,2.50
2023-02-19T22:30:31.473Z,1.37
2023-02-19T22:36:39.703Z,1.50
2023-02-19T22:42:47.608Z,2.17
2023-02-19T22:48:52.180Z,1.80
2023-02-19T22:54:58.226Z,2.60
2023-02-19T23:01:02.818Z,2.17
2023-02-19T23:07:07.779Z,1.63
2023-02-19T23:13:14.345Z,2.10
2023-02-19T23:19:18.882Z,2.07
2023-02-19T23:25:23.576Z,1.67
2023-02-19T23:31:28.469Z,2.10
2023-02-19T23:37:33.113Z,1.80
2023-02-19T23:43:37.759Z,1.70
2023-02-19T23:49:42.323Z,2.20
2023-02-19T23:55:46.814Z,2.57
